Terminal Aerodrome Forecast
Issued by NWS Tuscon, AZ

Home | Current Version | Previous Version | Text Only | Print | Product List | Glossary On
Versions: 1 2 3 4 5 6 7 8 9 10 11 12 13
000
FTUS45 KTWC 021100
TAFDUG
TAF
KDUG 021140Z 0212/0312 18018G25KT P6SM FEW050 BKN120 OVC200
     FM021800 19025G35KT P6SM SCT040 BKN090
      TEMPO 0218/0222 BKN040
     FM022200 21025G35KT P6SM VCSH BKN040 OVC090
      TEMPO 0222/0301 -SHRA
     FM030100 22018G30KT P6SM -SHRA SCT026 BKN040
      TEMPO 0302/0306 SHRA BKN026 OVC040
     FM030800 29012KT P6SM SCT030 BKN045 BKN100=

USA.gov is the U.S. government's official web portal to all federal, state and local government web resources and services.